createdAt,value
2023-02-24T00:00:34.088Z,99304.39
2023-02-24T00:03:13.128Z,99300.05
2023-02-24T00:05:43.133Z,99294.52
2023-02-24T00:08:17.431Z,99290.04
2023-02-24T00:10:48.178Z,99291.05
2023-02-24T00:13:22.626Z,99287.05
2023-02-24T00:16:03.864Z,99281.35
2023-02-24T00:18:32.979Z,99275.82
2023-02-24T00:21:14.006Z,99268.41
2023-02-24T00:23:40.411Z,99264.59
2023-02-24T00:26:07.828Z,99260.95
2023-02-24T00:28:34.557Z,99253.58
2023-02-24T00:31:15.642Z,99251.84
2023-02-24T00:33:51.258Z,99246.49
2023-02-24T00:36:37.272Z,99243.54
2023-02-24T00:39:30.898Z,99237.14
2023-02-24T00:42:04.967Z,99228.66
2023-02-24T00:44:33.155Z,99226.04
2023-02-24T00:46:58.733Z,99222.72
2023-02-24T00:49:30.603Z,99221.63
2023-02-24T00:52:17.810Z,99217.23
2023-02-24T00:54:53.844Z,99212.88
2023-02-24T00:57:41.596Z,99211.61
2023-02-24T01:00:29.126Z,99205.34
2023-02-24T01:03:15.334Z,99199.76
2023-02-24T01:05:40.951Z,99194.38
2023-02-24T01:08:06.650Z,99187.33
2023-02-24T01:10:37.180Z,99189.52
2023-02-24T01:13:03.039Z,99192.05
2023-02-24T01:15:49.264Z,99184.77
2023-02-24T01:18:17.790Z,99183.88
2023-02-24T01:20:59.475Z,99180.89
2023-02-24T01:23:26.210Z,99179.48
2023-02-24T01:25:58.412Z,99173.62
2023-02-24T01:28:32.804Z,99171.70
2023-02-24T01:31:03.608Z,99164.98
2023-02-24T01:33:39.555Z,99161.67
2023-02-24T01:36:17.139Z,99159.92
2023-02-24T01:38:46.132Z,99150.44
2023-02-24T01:41:14.274Z,99147.67
2023-02-24T01:43:56.357Z,99145.25
2023-02-24T01:46:23.672Z,99139.91
2023-02-24T01:48:51.917Z,99138.70
2023-02-24T01:51:18.168Z,99138.36
2023-02-24T01:53:44.394Z,99136.47
2023-02-24T01:56:21.223Z,99131.99
2023-02-24T01:58:47.553Z,99125.95
2023-02-24T02:01:21.302Z,99123.00
2023-02-24T02:04:01.963Z,99120.08
2023-02-24T02:06:48.335Z,99117.17
2023-02-24T02:09:16.543Z,99117.49
2023-02-24T02:11:49.855Z,99111.66
2023-02-24T02:14:37.018Z,99112.52
2023-02-24T02:17:09.604Z,99109.77
2023-02-24T02:19:50.365Z,99103.58
2023-02-24T02:22:36.745Z,99093.63
2023-02-24T02:25:10.268Z,99088.79
2023-02-24T02:27:45.509Z,99085.84
2023-02-24T02:30:28.433Z,99087.02
2023-02-24T02:33:08.915Z,99086.16
2023-02-24T02:36:00.698Z,99086.42
2023-02-24T02:38:31.040Z,99084.46
2023-02-24T02:41:07.217Z,99084.05
2023-02-24T02:43:58.114Z,99078.83
2023-02-24T02:46:35.875Z,99081.17
2023-02-24T02:49:04.187Z,99076.14
2023-02-24T02:51:32.083Z,99077.25
2023-02-24T02:54:05.043Z,99073.88
2023-02-24T02:56:33.440Z,99071.39
2023-02-24T02:59:00.892Z,99073.04
2023-02-24T03:01:28.866Z,99068.52
2023-02-24T03:03:59.077Z,99066.05
2023-02-24T03:06:26.621Z,99063.09
2023-02-24T03:08:56.030Z,99061.45
2023-02-24T03:11:23.026Z,99059.13
2023-02-24T03:13:51.146Z,99047.53
2023-02-24T03:16:18.834Z,99036.14
2023-02-24T03:18:46.076Z,99046.21
2023-02-24T03:21:14.503Z,99045.47
2023-02-24T03:23:45.579Z,99039.39
2023-02-24T03:26:19.031Z,99044.11
2023-02-24T03:28:54.220Z,99042.25
2023-02-24T03:31:44.065Z,99042.14
2023-02-24T03:34:12.493Z,99035.86
2023-02-24T03:36:39.476Z,99034.60
2023-02-24T03:39:06.709Z,99027.83
2023-02-24T03:41:39.566Z,99029.97
2023-02-24T03:44:06.363Z,99026.48
2023-02-24T03:46:33.233Z,99024.54
2023-02-24T03:49:04.463Z,99025.14
2023-02-24T03:51:31.886Z,99019.92
2023-02-24T03:54:03.930Z,99019.30
2023-02-24T03:56:41.105Z,99018.18
2023-02-24T03:59:15.331Z,99009.52
2023-02-24T04:01:46.595Z,99008.24
2023-02-24T04:04:17.415Z,99002.52
2023-02-24T04:06:56.125Z,99002.27
2023-02-24T04:09:27.720Z,98999.59
2023-02-24T04:12:04.084Z,98991.98
2023-02-24T04:14:32.424Z,98982.48
2023-02-24T04:17:03.244Z,98977.92
2023-02-24T04:19:32.362Z,98975.67
2023-02-24T04:21:59.078Z,98971.84
2023-02-24T04:24:27.789Z,98960.99
2023-02-24T04:26:59.055Z,98962.08
2023-02-24T04:29:37.467Z,98958.61
2023-02-24T04:32:14.222Z,98957.70
2023-02-24T04:34:41.742Z,98954.86
2023-02-24T04:37:07.353Z,98955.12
2023-02-24T04:39:33.773Z,98952.98
2023-02-24T04:42:01.753Z,98949.11
2023-02-24T04:44:28.331Z,98945.97
2023-02-24T04:46:54.117Z,98945.06
2023-02-24T04:49:22.912Z,98941.60
2023-02-24T04:51:51.710Z,98937.23
2023-02-24T04:54:37.942Z,98938.35
2023-02-24T04:57:04.295Z,98931.90
2023-02-24T04:59:29.858Z,98931.83
2023-02-24T05:02:01.735Z,98927.42
2023-02-24T05:04:27.523Z,98928.40
2023-02-24T05:06:53.221Z,98923.86
2023-02-24T05:09:21.463Z,98920.02
2023-02-24T05:11:50.675Z,98918.59
2023-02-24T05:14:17.859Z,98918.21
2023-02-24T05:16:44.483Z,98915.20
2023-02-24T05:19:24.208Z,98917.73
2023-02-24T05:21:50.367Z,98913.02
2023-02-24T05:24:17.433Z,98912.63
2023-02-24T05:26:58.187Z,98913.80
2023-02-24T05:29:24.615Z,98911.04
2023-02-24T05:31:50.410Z,98905.55
2023-02-24T05:34:27.347Z,98906.37
2023-02-24T05:36:55.342Z,98907.20
2023-02-24T05:39:25.404Z,98905.95
2023-02-24T05:41:54.845Z,98902.45
2023-02-24T05:44:24.078Z,98902.23
2023-02-24T05:46:53.275Z,98906.16
2023-02-24T05:49:23.828Z,98906.64
2023-02-24T05:52:11.448Z,98907.11
2023-02-24T05:54:49.835Z,98903.93
2023-02-24T05:57:37.197Z,98908.41
2023-02-24T06:00:15.390Z,98908.40
2023-02-24T06:02:52.760Z,98904.41
2023-02-24T06:05:39.823Z,98905.41
2023-02-24T06:08:11.931Z,98899.02
2023-02-24T06:10:58.112Z,98900.33
2023-02-24T06:13:47.751Z,98895.98
2023-02-24T06:16:15.480Z,98892.70
2023-02-24T06:18:44.566Z,98894.14
2023-02-24T06:21:30.155Z,98893.05
2023-02-24T06:23:56.291Z,98893.73
2023-02-24T06:26:21.779Z,98895.23
2023-02-24T06:28:54.204Z,98891.72
2023-02-24T06:31:21.816Z,98886.38
2023-02-24T06:33:48.302Z,98885.29
2023-02-24T06:36:14.798Z,98880.41
2023-02-24T06:38:40.291Z,98877.54
2023-02-24T06:41:11.068Z,98876.58
2023-02-24T06:43:37.221Z,98874.07
2023-02-24T06:46:06.206Z,98876.57
2023-02-24T06:48:35.537Z,98874.61
2023-02-24T06:51:05.130Z,98874.34
2023-02-24T06:53:43.428Z,98874.95
2023-02-24T06:56:15.125Z,98873.68
2023-02-24T06:58:45.254Z,98871.41
2023-02-24T07:01:12.202Z,98872.77
2023-02-24T07:03:40.614Z,98871.17
2023-02-24T07:06:20.556Z,98872.19
2023-02-24T07:08:46.334Z,98872.47
2023-02-24T07:11:14.069Z,98867.40
2023-02-24T07:13:49.987Z,98863.92
2023-02-24T07:16:19.220Z,98862.66
2023-02-24T07:18:48.390Z,98856.96
2023-02-24T07:21:18.151Z,98857.10
2023-02-24T07:23:49.761Z,98848.91
2023-02-24T07:26:20.235Z,98846.30
2023-02-24T07:28:48.095Z,98843.11
2023-02-24T07:31:15.457Z,98845.27
2023-02-24T07:33:41.136Z,98846.06
2023-02-24T07:36:09.650Z,98845.52
2023-02-24T07:38:41.375Z,98844.38
2023-02-24T07:41:08.249Z,98840.16
2023-02-24T07:43:33.758Z,98840.46
2023-02-24T07:45:59.368Z,98836.75
2023-02-24T07:48:26.277Z,98833.56
2023-02-24T07:50:53.060Z,98835.63
2023-02-24T07:53:19.317Z,98833.98
2023-02-24T07:55:46.515Z,98829.23
2023-02-24T07:58:12.117Z,98828.26
2023-02-24T08:00:58.011Z,98825.46
2023-02-24T08:03:23.963Z,98824.23
2023-02-24T08:05:49.469Z,98824.89
2023-02-24T08:08:21.138Z,98817.78
2023-02-24T08:10:47.569Z,98816.34
2023-02-24T08:13:13.197Z,98816.83
2023-02-24T08:15:38.755Z,98811.65
2023-02-24T08:18:04.425Z,98807.77
2023-02-24T08:20:36.277Z,98804.96
2023-02-24T08:23:02.161Z,98804.16
2023-02-24T08:25:36.066Z,98800.36
2023-02-24T08:28:08.520Z,98800.09
2023-02-24T08:30:38.952Z,98795.33
2023-02-24T08:33:09.386Z,98792.80
2023-02-24T08:35:36.231Z,98792.61
2023-02-24T08:38:05.648Z,98787.73
2023-02-24T08:40:50.334Z,98784.17
2023-02-24T08:43:19.700Z,98788.34
2023-02-24T08:45:46.471Z,98789.02
2023-02-24T08:48:18.695Z,98785.60
2023-02-24T08:50:45.799Z,98779.58
2023-02-24T08:53:19.334Z,98778.14
2023-02-24T08:55:45.449Z,98773.11
2023-02-24T08:58:18.207Z,98773.41
2023-02-24T09:00:54.808Z,98769.42
2023-02-24T09:03:29.242Z,98762.60
2023-02-24T09:05:57.092Z,98758.54
2023-02-24T09:08:32.783Z,98756.52
2023-02-24T09:10:59.651Z,98754.95
2023-02-24T09:13:33.035Z,98753.59
2023-02-24T09:15:59.212Z,98749.52
2023-02-24T09:18:30.423Z,98748.17
2023-02-24T09:21:16.245Z,98744.55
2023-02-24T09:23:46.252Z,98742.74
2023-02-24T09:26:14.107Z,98735.40
2023-02-24T09:28:48.856Z,98735.45
2023-02-24T09:31:17.112Z,98738.02
2023-02-24T09:33:51.338Z,98736.15
2023-02-24T09:36:20.545Z,98733.77
2023-02-24T09:39:04.917Z,98728.73
2023-02-24T09:43:30.541Z,98725.11
2023-02-24T09:45:59.668Z,98722.48
2023-02-24T09:48:30.735Z,98720.02
2023-02-24T09:51:05.498Z,98721.91
2023-02-24T09:53:41.274Z,98718.44
2023-02-24T09:56:16.346Z,98717.02
2023-02-24T09:58:48.112Z,98716.02
2023-02-24T10:01:23.666Z,98711.51
2023-02-24T10:03:53.564Z,98712.36
2023-02-24T10:06:21.737Z,98709.94
2023-02-24T10:08:51.975Z,98704.75
2023-02-24T10:11:32.866Z,98710.27
2023-02-24T10:14:03.477Z,98707.38
2023-02-24T10:16:41.641Z,98704.96
2023-02-24T10:19:23.818Z,98706.39
2023-02-24T10:22:02.951Z,98703.52
2023-02-24T10:24:34.662Z,98704.83
2023-02-24T10:27:09.428Z,98704.19
2023-02-24T10:29:51.116Z,98698.62
2023-02-24T10:32:31.706Z,98695.75
2023-02-24T10:35:51.530Z,98692.28
2023-02-24T10:38:17.205Z,98685.92
2023-02-24T10:40:56.872Z,98680.46
2023-02-24T10:43:30.275Z,98680.67
2023-02-24T10:46:06.382Z,98675.77
2023-02-24T10:48:41.710Z,98674.20
2023-02-24T10:51:19.380Z,98672.97
2023-02-24T10:53:53.386Z,98671.40
2023-02-24T10:56:41.775Z,98667.54
2023-02-24T10:59:30.010Z,98665.91
2023-02-24T11:02:01.339Z,98660.13
2023-02-24T11:04:54.141Z,98653.11
2023-02-24T11:07:25.627Z,98649.60
2023-02-24T11:10:11.159Z,98649.45
2023-02-24T11:13:08.013Z,98646.22
2023-02-24T11:15:54.008Z,98633.98
2023-02-24T11:18:23.376Z,98630.85
2023-02-24T11:20:50.295Z,98626.85
2023-02-24T11:23:17.916Z,98624.03
2023-02-24T11:25:46.272Z,98619.19
2023-02-24T11:28:18.642Z,98613.67
2023-02-24T11:30:47.318Z,98608.86
2023-02-24T11:33:27.860Z,98603.00
2023-02-24T11:35:59.792Z,98601.77
2023-02-24T11:38:30.965Z,98598.44
2023-02-24T11:41:00.699Z,98595.02
2023-02-24T11:43:28.806Z,98591.86
2023-02-24T11:45:57.458Z,98586.81
2023-02-24T11:48:25.618Z,98579.16
2023-02-24T11:50:53.309Z,98577.51
2023-02-24T11:53:26.501Z,98570.95
2023-02-24T11:55:59.275Z,98576.73
2023-02-24T11:58:26.732Z,98573.20
2023-02-24T12:00:57.139Z,98574.21
2023-02-24T12:03:29.467Z,98572.41
2023-02-24T12:05:58.550Z,98568.25
2023-02-24T12:08:27.545Z,98564.20
2023-02-24T12:10:55.181Z,98563.67
2023-02-24T12:13:25.003Z,98560.48
2023-02-24T12:15:56.454Z,98560.49
2023-02-24T12:18:25.514Z,98557.13
2023-02-24T12:20:52.609Z,98553.51
2023-02-24T12:23:24.357Z,98547.77
2023-02-24T12:25:59.206Z,98549.64
2023-02-24T12:28:30.578Z,98547.35
2023-02-24T12:31:03.633Z,98541.88
2023-02-24T12:33:35.239Z,98541.33
2023-02-24T12:36:06.176Z,98536.52
2023-02-24T12:38:41.311Z,98532.98
2023-02-24T12:41:17.099Z,98523.31
2023-02-24T12:43:47.133Z,98516.40
2023-02-24T12:46:21.307Z,98512.92
2023-02-24T12:48:53.891Z,98511.95
2023-02-24T12:51:23.880Z,98505.74
2023-02-24T12:53:55.649Z,98501.80
2023-02-24T12:56:25.977Z,98500.69
2023-02-24T12:58:53.992Z,98498.22
2023-02-24T13:01:23.587Z,98491.38
2023-02-24T13:03:57.661Z,98490.31
2023-02-24T13:06:30.689Z,98487.58
2023-02-24T13:09:01.110Z,98483.61
2023-02-24T13:11:33.697Z,98481.05
2023-02-24T13:14:05.522Z,98481.42
2023-02-24T13:16:32.003Z,98473.58
2023-02-24T13:19:07.015Z,98472.25
2023-02-24T13:21:33.660Z,98465.91
2023-02-24T13:24:00.827Z,98460.40
2023-02-24T13:26:27.674Z,98458.02
2023-02-24T13:29:00.513Z,98459.16
2023-02-24T13:31:26.677Z,98462.55
2023-02-24T13:33:53.134Z,98456.39
2023-02-24T13:36:21.596Z,98455.94
2023-02-24T13:38:48.339Z,98454.55
2023-02-24T13:41:25.893Z,98449.16
2023-02-24T13:43:59.837Z,98444.30
2023-02-24T13:46:27.535Z,98436.45
2023-02-24T13:49:00.982Z,98432.48
2023-02-24T13:51:41.764Z,98435.23
2023-02-24T13:54:16.531Z,98428.88
2023-02-24T13:56:45.623Z,98426.67
2023-02-24T13:59:21.375Z,98424.40
2023-02-24T14:01:51.794Z,98420.96
2023-02-24T14:04:22.562Z,98413.83
2023-02-24T14:06:50.389Z,98417.70
2023-02-24T14:09:17.765Z,98423.84
2023-02-24T14:11:43.481Z,98425.94
2023-02-24T14:14:18.199Z,98426.64
2023-02-24T14:16:48.171Z,98425.84
2023-02-24T14:19:16.495Z,98417.64
2023-02-24T14:21:54.151Z,98411.09
2023-02-24T14:24:20.577Z,98410.86
2023-02-24T14:26:50.426Z,98399.33
2023-02-24T14:29:18.227Z,98394.30
2023-02-24T14:31:47.839Z,98392.16
2023-02-24T14:34:19.498Z,98393.56
2023-02-24T14:36:46.846Z,98398.56
2023-02-24T14:39:16.112Z,98389.98
2023-02-24T14:41:42.054Z,98385.11
2023-02-24T14:44:12.019Z,98385.33
2023-02-24T14:46:49.000Z,98383.14
2023-02-24T14:49:24.375Z,98381.84
2023-02-24T14:51:52.032Z,98373.58
2023-02-24T14:54:21.618Z,98367.05
2023-02-24T14:56:47.156Z,98369.89
2023-02-24T14:59:18.446Z,98374.17
2023-02-24T15:01:47.592Z,98366.27
2023-02-24T15:04:14.809Z,98368.65
2023-02-24T15:06:44.356Z,98375.05
2023-02-24T15:09:14.344Z,98370.45
2023-02-24T15:11:41.226Z,98367.71
2023-02-24T15:14:08.948Z,98358.61
2023-02-24T15:16:39.880Z,98355.71
2023-02-24T15:19:05.582Z,98355.13
2023-02-24T15:21:32.533Z,98354.47
2023-02-24T15:24:01.919Z,98353.84
2023-02-24T15:26:31.015Z,98357.04
2023-02-24T15:29:01.427Z,98355.29
2023-02-24T15:31:28.451Z,98344.95
2023-02-24T15:33:56.727Z,98341.77
2023-02-24T15:36:24.570Z,98342.51
2023-02-24T15:38:52.797Z,98336.52
2023-02-24T15:41:19.347Z,98338.93
2023-02-24T15:43:50.701Z,98332.92
2023-02-24T15:46:22.599Z,98337.80
2023-02-24T15:48:49.061Z,98343.98
2023-02-24T15:51:21.937Z,98340.55
2023-02-24T15:53:47.769Z,98343.48
2023-02-24T15:56:13.386Z,98339.20
2023-02-24T15:58:39.531Z,98347.10
2023-02-24T16:01:05.157Z,98339.46
2023-02-24T16:03:32.775Z,98343.81
2023-02-24T16:05:58.589Z,98340.55
2023-02-24T16:08:24.609Z,98342.84
2023-02-24T16:10:53.578Z,98350.77
2023-02-24T16:13:21.651Z,98348.49
2023-02-24T16:15:48.522Z,98349.23
2023-02-24T16:18:20.884Z,98350.15
2023-02-24T16:20:55.813Z,98360.56
2023-02-24T16:23:24.200Z,98358.19
2023-02-24T16:25:51.349Z,98360.98
2023-02-24T16:28:19.219Z,98361.84
2023-02-24T16:30:45.869Z,98360.23
2023-02-24T16:33:13.240Z,98357.14
2023-02-24T16:35:39.348Z,98356.79
2023-02-24T16:38:05.264Z,98347.16
2023-02-24T16:40:33.814Z,98350.45
2023-02-24T16:42:59.661Z,98351.04
2023-02-24T16:45:28.050Z,98351.75
2023-02-24T16:47:54.282Z,98349.77
2023-02-24T16:50:22.032Z,98347.10
2023-02-24T16:52:51.846Z,98351.13
2023-02-24T16:55:17.767Z,98350.52
2023-02-24T16:57:44.144Z,98346.00
2023-02-24T17:00:15.176Z,98347.71
2023-02-24T17:02:41.242Z,98347.84
2023-02-24T17:05:07.904Z,98348.25
2023-02-24T17:07:39.390Z,98345.69
2023-02-24T17:10:06.251Z,98350.69
2023-02-24T17:12:31.922Z,98351.56
2023-02-24T17:14:59.070Z,98348.59
2023-02-24T17:17:24.870Z,98350.25
2023-02-24T17:19:52.964Z,98352.09
2023-02-24T17:22:19.191Z,98347.91
2023-02-24T17:24:44.773Z,98346.23
2023-02-24T17:27:10.550Z,98333.11
2023-02-24T17:29:36.243Z,98335.98
2023-02-24T17:32:01.968Z,98332.89
2023-02-24T17:34:30.648Z,98336.52
2023-02-24T17:37:05.550Z,98338.05
2023-02-24T17:39:34.155Z,98338.71
2023-02-24T17:41:59.882Z,98330.92
2023-02-24T17:44:25.557Z,98326.95
2023-02-24T17:46:52.320Z,98324.01
2023-02-24T17:49:18.560Z,98319.69
2023-02-24T17:51:44.099Z,98318.31
2023-02-24T17:54:09.622Z,98315.88
2023-02-24T17:56:35.390Z,98312.16
2023-02-24T17:59:01.158Z,98304.65
2023-02-24T18:01:27.292Z,98304.35
2023-02-24T18:03:55.799Z,98302.90
2023-02-24T18:06:34.419Z,98301.40
2023-02-24T18:09:00.865Z,98298.63
2023-02-24T18:11:26.727Z,98295.42
2023-02-24T18:13:55.439Z,98297.84
2023-02-24T18:16:21.680Z,98297.16
2023-02-24T18:18:47.868Z,98291.69
2023-02-24T18:21:13.814Z,98290.38
2023-02-24T18:23:40.834Z,98287.77
2023-02-24T18:26:10.801Z,98285.73
2023-02-24T18:28:36.716Z,98288.61
2023-02-24T18:31:10.658Z,98286.64
2023-02-24T18:33:36.267Z,98278.11
2023-02-24T18:36:02.397Z,98274.69
2023-02-24T18:38:28.550Z,98268.73
2023-02-24T18:41:02.935Z,98260.84
2023-02-24T18:43:30.761Z,98252.52
2023-02-24T18:45:59.676Z,98248.82
2023-02-24T18:48:27.993Z,98253.52
2023-02-24T18:50:54.688Z,98249.70
2023-02-24T18:53:20.749Z,98248.29
2023-02-24T18:55:46.669Z,98252.68
2023-02-24T18:58:12.341Z,98249.81
2023-02-24T19:00:37.812Z,98243.80
2023-02-24T19:03:03.314Z,98238.02
2023-02-24T19:05:38.014Z,98234.35
2023-02-24T19:08:04.240Z,98235.32
2023-02-24T19:10:30.146Z,98228.23
2023-02-24T19:12:55.871Z,98225.42
2023-02-24T19:15:24.668Z,98214.81
2023-02-24T19:17:53.179Z,98209.59
2023-02-24T19:20:21.982Z,98206.52
2023-02-24T19:22:50.440Z,98203.30
2023-02-24T19:25:17.134Z,98207.42
2023-02-24T19:27:45.000Z,98198.96
2023-02-24T19:30:31.927Z,98196.41
2023-02-24T19:32:57.521Z,98195.04
2023-02-24T19:35:23.347Z,98184.75
2023-02-24T19:37:50.350Z,98185.90
2023-02-24T19:40:17.636Z,98182.17
2023-02-24T19:42:43.292Z,98181.83
2023-02-24T19:45:12.136Z,98173.41
2023-02-24T19:47:38.027Z,98173.38
2023-02-24T19:50:03.688Z,98178.27
2023-02-24T19:52:29.162Z,98176.95
2023-02-24T19:54:58.139Z,98178.21
2023-02-24T19:57:23.710Z,98174.73
2023-02-24T19:59:51.927Z,98174.35
2023-02-24T20:02:17.720Z,98182.47
2023-02-24T20:04:45.038Z,98180.34
2023-02-24T20:07:10.616Z,98177.02
2023-02-24T20:09:36.743Z,98175.53
2023-02-24T20:12:02.474Z,98170.11
2023-02-24T20:14:31.319Z,98170.50
2023-02-24T20:16:57.234Z,98169.70
2023-02-24T20:19:25.972Z,98167.36
2023-02-24T20:21:51.463Z,98166.93
2023-02-24T20:24:28.605Z,98164.09
2023-02-24T20:26:54.217Z,98159.23
2023-02-24T20:29:21.227Z,98154.11
2023-02-24T20:31:47.886Z,98155.48
2023-02-24T20:34:14.592Z,98159.80
2023-02-24T20:36:43.955Z,98161.86
2023-02-24T20:39:12.468Z,98157.28
2023-02-24T20:41:38.024Z,98157.58
2023-02-24T20:44:03.811Z,98147.06
2023-02-24T20:46:30.682Z,98145.65
2023-02-24T20:48:58.524Z,98139.48
2023-02-24T20:51:28.313Z,98142.34
2023-02-24T20:53:58.053Z,98133.54
2023-02-24T20:56:25.267Z,98128.54
2023-02-24T20:58:51.540Z,98128.00
2023-02-24T21:01:17.648Z,98120.91
2023-02-24T21:03:43.263Z,98117.42
2023-02-24T21:06:10.678Z,98116.70
2023-02-24T21:08:36.611Z,98112.17
2023-02-24T21:11:02.096Z,98113.45
2023-02-24T21:13:30.489Z,98113.38
2023-02-24T21:15:57.078Z,98110.88
2023-02-24T21:18:25.087Z,98104.06
2023-02-24T21:20:53.196Z,98101.20
2023-02-24T21:23:19.150Z,98094.91
2023-02-24T21:25:44.834Z,98097.17
2023-02-24T21:28:12.762Z,98096.51
2023-02-24T21:30:41.980Z,98092.27
2023-02-24T21:33:07.787Z,98084.05
2023-02-24T21:35:33.527Z,98079.10
2023-02-24T21:38:02.507Z,98072.27
2023-02-24T21:40:28.313Z,98068.38
2023-02-24T21:42:53.939Z,98059.00
2023-02-24T21:45:32.868Z,98058.30
2023-02-24T21:47:58.432Z,98057.16
2023-02-24T21:50:24.129Z,98055.98
2023-02-24T21:52:50.003Z,98049.51
2023-02-24T21:55:28.337Z,98045.80
2023-02-24T21:57:54.119Z,98039.08
2023-02-24T22:00:20.316Z,98032.73
2023-02-24T22:02:45.924Z,98029.28
2023-02-24T22:05:11.881Z,98023.14
2023-02-24T22:07:38.481Z,98013.44
2023-02-24T22:10:04.132Z,98023.59
2023-02-24T22:12:29.868Z,98024.22
2023-02-24T22:14:55.654Z,98018.44
2023-02-24T22:17:21.279Z,98018.80
2023-02-24T22:19:50.125Z,98010.77
2023-02-24T22:22:15.585Z,98004.36
2023-02-24T22:24:41.750Z,98004.98
2023-02-24T22:27:07.529Z,97999.10
2023-02-24T22:29:35.421Z,97997.33
2023-02-24T22:32:01.203Z,97996.23
2023-02-24T22:34:27.919Z,97992.10
2023-02-24T22:36:53.770Z,97988.50
2023-02-24T22:39:19.455Z,97987.31
2023-02-24T22:41:46.988Z,97987.85
2023-02-24T22:44:14.417Z,97980.35
2023-02-24T22:46:40.370Z,97972.66
2023-02-24T22:49:06.722Z,97968.22
2023-02-24T22:51:32.646Z,97965.85
2023-02-24T22:53:58.373Z,97970.38
2023-02-24T22:56:25.921Z,97968.38
2023-02-24T22:58:51.796Z,97965.82
2023-02-24T23:01:23.550Z,97962.70
2023-02-24T23:03:52.134Z,97958.16
2023-02-24T23:06:18.739Z,97955.83
2023-02-24T23:08:46.078Z,97949.54
2023-02-24T23:11:13.579Z,97943.11
2023-02-24T23:13:39.648Z,97939.10
2023-02-24T23:16:06.623Z,97941.08
2023-02-24T23:18:32.912Z,97940.00
2023-02-24T23:21:03.294Z,97935.95
2023-02-24T23:23:29.380Z,97937.95
2023-02-24T23:25:55.201Z,97940.42
2023-02-24T23:28:21.123Z,97941.71
2023-02-24T23:30:46.767Z,97930.38
2023-02-24T23:33:13.678Z,97924.83
2023-02-24T23:35:40.905Z,97922.64
2023-02-24T23:38:06.648Z,97916.61
2023-02-24T23:40:44.418Z,97911.20
2023-02-24T23:43:16.432Z,97898.33
2023-02-24T23:45:43.178Z,97886.17
2023-02-24T23:48:09.487Z,97883.21
2023-02-24T23:50:37.559Z,97877.04
2023-02-24T23:53:04.368Z,97868.14
2023-02-24T23:55:30.801Z,97865.54
2023-02-24T23:57:56.257Z,97859.69
